Dorchester, New Hampshire
Current Conditions -  °F | °C
As of 4:55 AM on Monday 22 Dec 2014 (Local Time) from K1P1 Reporting Station
Overcast Overcast  
Wind Chill: -2°   Ceiling: 3900
Heat Index: -2°   Visibility: 10mi
Dew Point: -2°   Wind: 0mph
Humidity: 100%   Direction: NA
Pressure: 30.36"   Gusts: NA
Location:  43.7922°N, 71.8971°W
Report Text: K1P1 220955Z AUTO 00000KT 10SM OVC039 M02/M02 A3036 RMK AO2 T10211021
Loading
Personal Weather Stations






























Interactive Weather Map New forecast layout! Learn more

10-Day Weather Forecast

Advertisements
Track Severe Weather on mobile